Hlavní strana
METAR-TAF:

METAR-TAF

Letiště :

Letiště Kodaň

Kodaň, Dánsko

zeměpisná šířka: 55-37N, zeměpisná délka: 012-39E, výška: 5 m

Aktuální stav počasí

Zpráva byla vytvořena před 43 minutami, v 03:50 UTC
Jihovýchodní vítr 9 kt
Teplota 7°C
Vlhkost vzduchu 76%
Tlak 1040 hPa
Viditelnost 10 km a více
Oblačno až skoro zataženo ve výšce 1500 ft

METAR: EKCH 170350Z 14009KT 9999 BKN015 07/03 Q1040 TEMPO BKN014

Čas: 05:33 (04:33 UTC)

Předpověď počasí

Zpráva byla vytvořena před 5 hodinami a 17 minutami, v 23:16 UTC
Předpověď platná od 17 v 00 UTC do 17 v 24 UTC
Jihojihovýchodní vítr 8 kt
Viditelnost 10 km a více
Oblačno až skoro zataženo ve výšce 1800 ft
Dočasný
od 17 v 00 UTC do 17 v 09 UTC
Oblačno až skoro zataženo ve výšce 1200 ft
Dočasný
od 17 v 16 UTC do 17 v 21 UTC
Viditelnost: 4000 m
kouřmo
Dočasný
od 17 v 21 UTC do 17 v 24 UTC
Oblačno až skoro zataženo ve výšce 1000 ft

TAF: EKCH 162316Z 1700/1724 15008KT 9999 BKN018 TEMPO 1700/1709 BKN012 TEMPO 1716/1721 4000 BR TEMPO 1721/1724 BKN010

Stav a předpovědi počasí z více než 4 000 letišť (zprávy METAR a TAF).

Červené a žluté tečky na mapě představují dostupné meteorologické stanice.

Když kurzor umístíte na tečku, zobrazí se název stanice.

Pak kliknutím zobrazíte stav a předpověď počasí.

Chcete-li změnit mapu, kliknutím na zelené tlačítko se znaménkem +mapu přiblížíte, kliknutím na zelené tlačítko se znaménkem – mapu oddálíte a kliknutím na zelené šipky přejdete na sousední mapy.


METAR-TAF: